Ora Direzione Vento Velocita' Vento Media Vento Raffica Max. Temperatura Wind Chill Pioggia Pressione
15:10:22.0312 °(NW)8.3 Kts7.33 Kts10.6 Kts18.0 °C17.83 °C0.0 mm1023.0 Hpa
14:49:29.0323 °(NW)6.2 Kts6.9 Kts10.6 Kts18.0 °C18.08 °C0.0 mm1023.0 Hpa
14:28:41.0305 °(NW)8.5 Kts7.66 Kts10.6 Kts17.6 °C17.25 °C0.0 mm1024.8 Hpa
14:09:17.0319 °(NW)5.6 Kts8.23 Kts10.0 Kts17.7 °C17.85 °C0.0 mm1023.0 Hpa
13:49:37.0311 °(NW)7.8 Kts6.9 Kts8.8 Kts17.3 °C17.01 °C0.0 mm1026.1 Hpa
13:30:11.0316 °(NW)5.4 Kts7.56 Kts8.7 Kts17.6 °C17.78 °C0.0 mm1022.6 Hpa
13:09:50.0312 °(NW)7.6 Kts7.13 Kts8.7 Kts17.7 °C17.5 °C0.0 mm1025.8 Hpa
12:49:26.0308 °(NW)7.3 Kts5.93 Kts7.8 Kts16.8 °C16.5 °C0.0 mm1025.8 Hpa
12:29:59.0302 °(WNW)6.8 Kts5.7 Kts7.7 Kts16.6 °C16.3 °C0.0 mm1025.3 Hpa
12:10:13.0300 °(WNW)5.3 Kts5.03 Kts5.9 Kts16.7 °C16.71 °C0.0 mm1024.5 Hpa
11:49:54.0288 °(WNW)4.0 Kts3.33 Kts4.2 Kts17.5 °C17.93 °C0.0 mm1025.4 Hpa
11:29:32.0279 °(W)2.6 Kts3.83 Kts4.2 Kts17.2 °C17.98 °C0.0 mm1023.7 Hpa
11:10:18.0288 °(WNW)3.2 Kts2.7 Kts3.9 Kts17.3 °C17.92 °C0.0 mm1026.0 Hpa
10:50:07.0313 °(NW)1.7 Kts2.66 Kts3.9 Kts17.0 °C18.17 °C0.0 mm1023.9 Hpa
10:29:44.0316 °(NW)2.5 Kts2.8 Kts3.9 Kts16.8 °C17.59 °C0.0 mm1026.8 Hpa
10:09:31.0312 °(NW)2.9 Kts2.7 Kts3.9 Kts15.8 °C16.36 °C0.0 mm1026.0 Hpa
09:50:12.0314 °(NW)2.3 Kts2.3 Kts3.1 Kts16.3 °C17.11 °C0.0 mm1026.1 Hpa
09:29:56.0285 °(WNW)1.6 Kts1.46 Kts2.9 Kts16.7 °C17.9 °C0.0 mm1026.1 Hpa
09:09:42.0329 °(NNW)0.4 Kts0.83 Kts2.9 Kts16.6 °C18.84 °C0.0 mm1027.0 Hpa
08:49:20.0340 °(NNW)0.0 Kts0.0 Kts2.9 Kts15.8 °C22.93 °C0.0 mm1023.8 Hpa